Time;durP1;ratioP1;P1;durP2;ratioP2;P2;SDS_P1;SDS_P2;PMS_P1;PMS_P2;Temp;Humidity;BMP_temperature;BMP_pressure;BME280_temperature;BME280_humidity;BME280_pressure;Samples;Min_cycle;Max_cycle;Signal;HPM_P1;HPM_P2
2022/03/30 00:00:25;;;;;;;;;;;;;;;12.13;60.92;100082.50;5054949;28;19917;-81
2022/03/30 00:03:10;;;;;;;;;;;;;;;12.16;60.93;100081.81;5039570;28;19913;-80
2022/03/30 00:05:56;;;;;;;;;;;;;;;12.16;61.09;100070.13;5043627;28;19912;-81
2022/03/30 00:08:42;;;;;;;;;;;;;;;12.14;61.04;100062.28;5065007;28;19913;-81
2022/03/30 00:11:26;;;;;;;;;;;;;;;12.01;60.17;100038.91;5060723;28;19916;-81
2022/03/30 00:14:11;;;;;;;;;;;;;;;12.04;60.76;100057.28;5060693;28;19913;-82
2022/03/30 00:16:56;;;;;;;;;;;;;;;11.95;61.12;100057.41;5064355;28;19916;-81
2022/03/30 00:19:41;;;;;;;;;;;;;;;12.07;60.95;100045.72;5061675;28;19916;-81
2022/03/30 00:22:26;;;;;;;;;;;;;;;12.12;60.15;100047.41;5060751;28;19913;-81
2022/03/30 00:25:11;;;;;;;;;;;;;;;11.92;60.91;100049.13;5065693;28;19913;-81
2022/03/30 00:27:56;;;;;;;;;;;;;;;12.01;62.59;100049.78;5062600;28;19920;-81
2022/03/30 00:30:40;;;;;;;;;;;;;;;11.96;62.55;100041.84;5060056;28;20361;-81
2022/03/30 00:33:25;;;;;;;;;;;;;;;12.10;63.09;100030.59;5060749;28;19912;-82
2022/03/30 00:36:09;;;;;;;;;;;;;;;11.84;63.05;100031.72;5060867;28;19912;-80
2022/03/30 00:38:54;;;;;;;;;;;;;;;11.90;62.85;100030.38;5058331;28;19912;-81
2022/03/30 00:41:39;;;;;;;;;;;;;;;11.94;61.69;100025.03;5063581;28;19913;-82
2022/03/30 00:44:23;;;;;;;;;;;;;;;11.94;61.39;100017.66;5060465;28;19912;-81
2022/03/30 00:47:12;;;;;;;;;;;;;;;11.81;61.59;100016.09;5061362;28;19921;-81
2022/03/30 00:49:56;;;;;;;;;;;;;;;11.74;61.81;100006.88;5068655;28;19912;-81
2022/03/30 00:52:41;;;;;;;;;;;;;;;11.72;61.78;100001.75;5059740;28;20300;-81
2022/03/30 00:55:26;;;;;;;;;;;;;;;11.76;62.52;99997.25;5060782;28;19913;-81
2022/03/30 00:58:11;;;;;;;;;;;;;;;11.74;62.00;99990.53;5059497;28;19916;-81
2022/03/30 01:00:58;;;;;;;;;;;;;;;11.73;61.48;99992.50;5061631;28;19921;-80
2022/03/30 01:03:42;;;;;;;;;;;;;;;11.54;61.90;99987.53;5059151;28;19912;-81
2022/03/30 01:06:27;;;;;;;;;;;;;;;11.28;61.49;99987.06;5058745;28;19917;-81
2022/03/30 01:09:11;;;;;;;;;;;;;;;11.28;62.90;99986.25;5058406;28;19912;-81
2022/03/30 01:11:56;;;;;;;;;;;;;;;11.31;64.10;99974.72;5059799;28;19912;-81
2022/03/30 01:14:41;;;;;;;;;;;;;;;11.28;63.67;99980.81;5059099;28;19913;-81
2022/03/30 01:17:25;;;;;;;;;;;;;;;11.27;64.06;99980.03;5062192;28;19912;-81
2022/03/30 01:20:11;;;;;;;;;;;;;;;11.22;65.09;99971.31;5060011;28;19916;-81
2022/03/30 01:22:55;;;;;;;;;;;;;;;11.27;63.97;99971.88;5057513;28;19913;-81
2022/03/30 01:25:40;;;;;;;;;;;;;;;11.30;63.69;99962.22;5060428;28;19913;-82
2022/03/30 01:28:28;;;;;;;;;;;;;;;11.47;62.84;99962.03;5059150;28;19912;-82
2022/03/30 01:34:15;;;;;;;;;;;;;;;11.29;62.98;99944.31;5062825;28;19913;-82
2022/03/30 01:37:01;;;;;;;;;;;;;;;11.28;63.89;99945.44;5060454;28;19912;-81
2022/03/30 01:39:45;;;;;;;;;;;;;;;11.19;64.45;99944.75;5057727;28;19917;-81
2022/03/30 01:42:30;;;;;;;;;;;;;;;11.01;64.59;99939.50;5060113;28;19913;-81
2022/03/30 01:45:16;;;;;;;;;;;;;;;11.00;64.62;99937.91;5059501;28;19912;-81
2022/03/30 01:48:00;;;;;;;;;;;;;;;11.07;63.74;99921.81;5038309;28;19913;-80
2022/03/30 01:50:45;;;;;;;;;;;;;;;11.05;63.32;99912.41;5042007;28;19913;-81
2022/03/30 01:53:30;;;;;;;;;;;;;;;11.07;63.11;99910.94;5040110;28;20293;-81
2022/03/30 01:56:15;;;;;;;;;;;;;;;11.15;62.89;99901.88;5043008;28;19913;-81
2022/03/30 01:58:59;;;;;;;;;;;;;;;11.01;63.89;99903.34;5062069;28;19913;-81
2022/03/30 02:01:44;;;;;;;;;;;;;;;10.90;63.13;99896.75;5061519;28;19917;-80
2022/03/30 02:04:29;;;;;;;;;;;;;;;10.95;62.53;99897.34;5058826;28;19912;-82
2022/03/30 02:07:14;;;;;;;;;;;;;;;11.18;61.50;99894.97;5058506;28;19913;-81
2022/03/30 02:09:59;;;;;;;;;;;;;;;11.30;60.96;99880.56;5058223;28;19912;-82
2022/03/30 02:12:43;;;;;;;;;;;;;;;11.19;63.38;99888.41;5058937;28;19912;-82
2022/03/30 02:15:29;;;;;;;;;;;;;;;11.04;63.70;99868.09;5063123;28;19912;-81
2022/03/30 02:18:13;;;;;;;;;;;;;;;11.00;63.95;99869.91;5061033;28;19913;-81
2022/03/30 02:20:58;;;;;;;;;;;;;;;11.37;62.65;99869.94;5058513;28;20296;-81
2022/03/30 02:23:45;;;;;;;;;;;;;;;11.24;63.87;99858.22;5058411;28;19912;-81
2022/03/30 02:26:30;;;;;;;;;;;;;;;11.11;64.18;99857.44;5061122;28;19912;-81
2022/03/30 02:29:15;;;;;;;;;;;;;;;11.15;63.67;99857.56;5057287;28;19917;-81
2022/03/30 02:32:00;;;;;;;;;;;;;;;11.05;63.23;99863.44;5060303;28;19912;-81
2022/03/30 02:34:45;;;;;;;;;;;;;;;10.87;63.75;99857.41;5058277;28;19912;-81
2022/03/30 02:37:29;;;;;;;;;;;;;;;10.79;64.56;99866.47;5058336;28;19921;-82
2022/03/30 02:40:14;;;;;;;;;;;;;;;9.98;67.87;99869.78;5057526;28;20312;-82
2022/03/30 02:42:59;;;;;;;;;;;;;;;9.87;69.33;99871.28;5058030;28;19913;-82
2022/03/30 02:45:43;;;;;;;;;;;;;;;10.05;68.45;99864.63;5059660;28;19913;-81
2022/03/30 02:48:32;;;;;;;;;;;;;;;9.77;68.75;99856.19;5057757;28;19912;-82
2022/03/30 02:51:17;;;;;;;;;;;;;;;9.84;69.82;99856.47;5060691;28;20137;-82
2022/03/30 02:54:01;;;;;;;;;;;;;;;10.02;69.45;99862.53;5058436;28;19913;-81
2022/03/30 02:56:46;;;;;;;;;;;;;;;9.88;69.66;99856.59;5058676;28;19913;-81
2022/03/30 02:59:31;;;;;;;;;;;;;;;10.09;68.65;99854.66;5060935;28;19912;-84
2022/03/30 03:02:15;;;;;;;;;;;;;;;10.39;67.77;99847.22;5059541;28;19912;-82
2022/03/30 03:05:01;;;;;;;;;;;;;;;10.68;66.77;99854.44;5058026;28;19913;-83
2022/03/30 03:07:45;;;;;;;;;;;;;;;10.71;66.24;99851.06;5061950;28;20293;-83
2022/03/30 03:10:30;;;;;;;;;;;;;;;10.89;65.69;99851.63;5058738;28;19920;-83
2022/03/30 03:13:16;;;;;;;;;;;;;;;10.85;65.41;99858.88;5057191;28;19913;-83
2022/03/30 03:16:01;;;;;;;;;;;;;;;10.88;65.25;99845.41;5061913;28;19913;-83
2022/03/30 03:18:46;;;;;;;;;;;;;;;10.84;65.15;99855.38;5058612;28;19913;-82
2022/03/30 03:21:31;;;;;;;;;;;;;;;10.98;64.57;99855.84;5057556;28;19916;-83
2022/03/30 03:24:15;;;;;;;;;;;;;;;10.90;65.19;99856.75;5061526;28;19920;-83
2022/03/30 03:27:00;;;;;;;;;;;;;;;11.07;64.32;99856.53;5057448;28;19913;-83
2022/03/30 03:29:44;;;;;;;;;;;;;;;10.91;64.34;99857.53;5057599;28;20455;-83
2022/03/30 03:32:29;;;;;;;;;;;;;;;10.99;64.24;99859.34;5057316;28;19912;-83
2022/03/30 03:35:14;;;;;;;;;;;;;;;10.84;64.51;99862.75;5057306;28;19912;-83
2022/03/30 03:37:59;;;;;;;;;;;;;;;10.84;64.72;99854.56;5058523;28;19913;-83
2022/03/30 03:40:44;;;;;;;;;;;;;;;10.68;64.81;99855.22;5097358;28;19920;-83
2022/03/30 03:43:29;;;;;;;;;;;;;;;10.70;65.02;99847.53;5090474;28;19912;-83
2022/03/30 03:46:13;;;;;;;;;;;;;;;10.45;64.90;99850.53;5088204;28;19931;-83
2022/03/30 03:48:57;;;;;;;;;;;;;;;10.60;65.57;99852.63;5100700;28;19912;-83
2022/03/30 03:51:42;;;;;;;;;;;;;;;10.71;65.17;99845.63;5089570;28;19912;-83
2022/03/30 03:54:26;;;;;;;;;;;;;;;10.85;64.40;99837.94;5088189;28;19916;-83
2022/03/30 03:57:11;;;;;;;;;;;;;;;10.78;64.98;99843.13;5086173;28;19913;-83
2022/03/30 03:59:55;;;;;;;;;;;;;;;10.72;65.16;99833.59;5100863;28;19916;-83
2022/03/30 04:02:40;;;;;;;;;;;;;;;10.66;65.72;99834.97;5086419;28;19911;-83
2022/03/30 04:05:25;;;;;;;;;;;;;;;10.81;64.97;99837.03;5078301;28;19912;-83
2022/03/30 04:08:10;;;;;;;;;;;;;;;10.89;65.38;99836.13;5101664;28;19912;-83
2022/03/30 04:10:55;;;;;;;;;;;;;;;10.96;65.46;99833.63;5101631;28;19912;-83
2022/03/30 04:13:40;;;;;;;;;;;;;;;10.95;65.91;99842.94;5092343;28;19912;-83
2022/03/30 04:16:25;;;;;;;;;;;;;;;11.02;65.56;99843.13;5100910;28;19912;-83
2022/03/30 04:19:09;;;;;;;;;;;;;;;10.96;65.81;99839.06;5088221;28;19911;-83
2022/03/30 04:21:54;;;;;;;;;;;;;;;11.09;64.63;99832.50;5085478;28;19916;-83
2022/03/30 04:24:39;;;;;;;;;;;;;;;11.20;63.93;99827.41;5096555;28;19912;-82
2022/03/30 04:27:23;;;;;;;;;;;;;;;11.14;63.90;99823.31;5086944;28;19912;-83
2022/03/30 04:30:09;;;;;;;;;;;;;;;11.05;63.39;99826.16;5085423;28;20296;-83
2022/03/30 04:32:53;;;;;;;;;;;;;;;11.09;63.11;99828.97;5093252;28;19912;-83
2022/03/30 04:35:38;;;;;;;;;;;;;;;11.17;63.68;99821.84;5102282;28;19912;-83
2022/03/30 04:38:23;;;;;;;;;;;;;;;11.08;63.60;99824.66;5085065;28;19911;-83
2022/03/30 04:41:07;;;;;;;;;;;;;;;11.13;64.54;99829.88;5095671;28;20296;-83
2022/03/30 04:43:52;;;;;;;;;;;;;;;11.03;65.34;99828.41;5084648;28;20292;-83
2022/03/30 04:46:36;;;;;;;;;;;;;;;11.23;64.55;99836.78;5081059;28;19912;-83
2022/03/30 04:49:21;;;;;;;;;;;;;;;11.36;63.81;99828.31;5084722;28;19912;-83
2022/03/30 04:52:06;;;;;;;;;;;;;;;11.48;63.22;99828.25;5097376;28;19920;-83
2022/03/30 04:54:50;;;;;;;;;;;;;;;11.35;63.65;99832.16;5102742;28;19912;-82
2022/03/30 04:57:35;;;;;;;;;;;;;;;11.37;63.62;99840.00;5095380;28;19912;-82
2022/03/30 05:00:20;;;;;;;;;;;;;;;11.22;64.84;99830.59;5104615;28;19920;-83
2022/03/30 05:03:04;;;;;;;;;;;;;;;11.56;64.06;99840.97;5092857;28;19912;-83
2022/03/30 05:05:49;;;;;;;;;;;;;;;11.49;63.52;99835.31;5083303;28;19919;-83
2022/03/30 05:08:33;;;;;;;;;;;;;;;11.29;63.30;99835.44;5086460;28;19912;-83
2022/03/30 05:11:18;;;;;;;;;;;;;;;11.64;62.94;99841.97;5078518;28;19912;-85
2022/03/30 05:14:03;;;;;;;;;;;;;;;11.69;62.44;99836.28;5087829;28;19912;-85
2022/03/30 05:16:47;;;;;;;;;;;;;;;11.39;63.17;99838.50;5092360;28;20400;-85
2022/03/30 05:19:32;;;;;;;;;;;;;;;11.31;63.67;99844.88;5087176;28;19912;-82
2022/03/30 05:22:16;;;;;;;;;;;;;;;11.52;63.13;99834.63;5086397;28;20379;-83
2022/03/30 05:25:01;;;;;;;;;;;;;;;11.46;63.54;99830.56;5101058;28;20297;-85
2022/03/30 05:27:46;;;;;;;;;;;;;;;11.48;63.40;99844.59;5100730;28;19919;-85
2022/03/30 05:30:30;;;;;;;;;;;;;;;11.43;63.50;99838.59;5085920;28;19912;-86
2022/03/30 05:33:15;;;;;;;;;;;;;;;11.42;64.25;99829.66;5110218;28;19911;-86
2022/03/30 05:35:59;;;;;;;;;;;;;;;11.42;63.89;99831.59;5107776;28;19912;-86
2022/03/30 05:38:45;;;;;;;;;;;;;;;11.37;64.55;99837.25;5087802;28;19912;-85
2022/03/30 05:41:30;;;;;;;;;;;;;;;11.27;64.71;99843.16;5099534;28;20598;-87
2022/03/30 05:44:14;;;;;;;;;;;;;;;11.44;63.93;99845.63;5088396;28;19919;-86
2022/03/30 05:46:59;;;;;;;;;;;;;;;11.10;65.06;99842.25;5092608;28;19912;-88
2022/03/30 05:49:43;;;;;;;;;;;;;;;11.17;65.00;99841.69;5092426;28;19912;-87
2022/03/30 05:52:28;;;;;;;;;;;;;;;11.29;64.89;99844.41;5088279;28;20276;-86
2022/03/30 05:55:12;;;;;;;;;;;;;;;11.25;64.86;99845.44;5107331;28;20299;-87
2022/03/30 05:57:57;;;;;;;;;;;;;;;11.28;64.58;99848.25;5086980;28;19916;-87
2022/03/30 06:00:42;;;;;;;;;;;;;;;11.37;64.16;99848.94;5089564;28;19916;-86
2022/03/30 06:03:27;;;;;;;;;;;;;;;11.33;64.36;99848.03;5092663;28;19916;-86
2022/03/30 06:06:11;;;;;;;;;;;;;;;11.55;63.71;99854.94;5087377;28;19935;-84
2022/03/30 06:08:56;;;;;;;;;;;;;;;11.61;63.17;99853.56;5088607;28;19916;-84
2022/03/30 06:11:41;;;;;;;;;;;;;;;11.65;63.17;99846.28;5102403;28;19912;-85
2022/03/30 06:14:25;;;;;;;;;;;;;;;11.59;63.21;99839.50;5089436;28;19912;-84
2022/03/30 06:17:10;;;;;;;;;;;;;;;11.57;63.53;99847.22;5110109;28;19912;-84
2022/03/30 06:19:57;;;;;;;;;;;;;;;11.44;64.44;99851.88;5120093;28;19912;-84
2022/03/30 06:22:42;;;;;;;;;;;;;;;11.24;64.98;99860.97;5108642;28;19924;-83
2022/03/30 06:25:26;;;;;;;;;;;;;;;11.60;64.10;99871.03;5091498;28;19912;-84
2022/03/30 06:28:11;;;;;;;;;;;;;;;11.76;63.56;99871.94;5093063;28;19912;-84
2022/03/30 06:30:56;;;;;;;;;;;;;;;11.88;63.20;99868.41;5091343;28;19912;-84
2022/03/30 06:33:42;;;;;;;;;;;;;;;11.80;63.62;99872.84;5059052;28;19936;-84
2022/03/30 06:36:27;;;;;;;;;;;;;;;11.72;64.46;99860.13;5070942;28;19913;-84
2022/03/30 06:39:12;;;;;;;;;;;;;;;11.91;63.94;99870.44;5082993;28;19916;-84
2022/03/30 06:41:57;;;;;;;;;;;;;;;11.92;64.07;99870.09;5098849;28;20502;-84
2022/03/30 06:44:41;;;;;;;;;;;;;;;11.84;64.08;99871.00;5092481;28;19916;-84
2022/03/30 06:47:26;;;;;;;;;;;;;;;11.84;63.97;99873.72;5104089;28;19912;-84
2022/03/30 06:50:12;;;;;;;;;;;;;;;12.20;62.82;99875.56;5082601;28;19912;-84
2022/03/30 06:52:56;;;;;;;;;;;;;;;12.13;63.21;99883.56;5099579;28;19912;-85
2022/03/30 06:55:41;;;;;;;;;;;;;;;12.41;62.31;99870.72;5095823;28;19912;-84
2022/03/30 06:58:25;;;;;;;;;;;;;;;12.40;62.23;99866.41;5094771;28;19912;-84
2022/03/30 07:01:12;;;;;;;;;;;;;;;12.25;63.42;99869.06;5103008;28;19916;-84
2022/03/30 07:03:57;;;;;;;;;;;;;;;12.69;62.16;99872.63;5099157;28;20531;-85
2022/03/30 07:10:15;;;;;;;;;;;;;;;12.77;61.58;99871.66;5102741;28;19912;-84
2022/03/30 07:12:51;;;;;;;;;;;;;;;12.32;63.58;99861.09;5103324;28;19924;-84
2022/03/30 07:15:35;;;;;;;;;;;;;;;12.21;64.46;99862.72;5096059;28;19912;-84
2022/03/30 07:18:20;;;;;;;;;;;;;;;12.50;63.63;99856.13;5107695;28;19912;-84
2022/03/30 07:21:05;;;;;;;;;;;;;;;12.60;63.53;99848.22;5103365;28;19924;-85
2022/03/30 07:23:50;;;;;;;;;;;;;;;12.90;63.15;99851.31;5098848;28;20379;-83
2022/03/30 07:26:34;;;;;;;;;;;;;;;12.52;64.15;99849.19;5102172;28;19912;-86
2022/03/30 07:29:19;;;;;;;;;;;;;;;13.01;62.43;99846.13;5089904;28;19912;-84
2022/03/30 07:32:03;;;;;;;;;;;;;;;13.31;60.40;99852.75;5107751;28;19916;-85
2022/03/30 07:34:49;;;;;;;;;;;;;;;13.39;59.71;99859.97;5107622;28;19916;-84
2022/03/30 07:37:34;;;;;;;;;;;;;;;13.60;58.70;99859.69;5108675;28;19912;-84
2022/03/30 07:40:19;;;;;;;;;;;;;;;13.44;59.59;99856.97;5104454;28;19916;-86
2022/03/30 07:43:03;;;;;;;;;;;;;;;13.48;59.94;99857.84;5098508;28;19912;-85
2022/03/30 07:45:48;;;;;;;;;;;;;;;13.51;60.01;99859.84;5111223;28;19912;-86
2022/03/30 07:48:33;;;;;;;;;;;;;;;13.47;60.03;99850.78;5091335;28;19911;-85
2022/03/30 07:51:17;;;;;;;;;;;;;;;13.57;60.52;99844.00;5097596;28;19916;-85
2022/03/30 07:54:03;;;;;;;;;;;;;;;13.51;60.56;99840.75;5089733;28;19912;-85
2022/03/30 07:56:47;;;;;;;;;;;;;;;13.47;60.82;99841.81;5087724;28;19916;-84
2022/03/30 07:59:32;;;;;;;;;;;;;;;13.63;60.80;99837.91;5102477;28;19916;-85
2022/03/30 08:02:18;;;;;;;;;;;;;;;13.91;60.00;99836.94;5081061;28;19916;-85
2022/03/30 08:05:03;;;;;;;;;;;;;;;14.07;59.46;99829.44;5108425;28;19912;-83
2022/03/30 08:07:51;;;;;;;;;;;;;;;13.63;60.91;99821.50;5110867;28;19912;-85
2022/03/30 08:10:37;;;;;;;;;;;;;;;13.58;61.51;99824.53;5093046;28;19911;-85
2022/03/30 08:13:22;;;;;;;;;;;;;;;13.78;61.49;99830.00;5090578;28;19912;-84
2022/03/30 08:16:07;;;;;;;;;;;;;;;13.93;61.33;99824.47;5086503;28;19912;-84
2022/03/30 08:18:52;;;;;;;;;;;;;;;13.85;61.81;99821.97;5096772;28;19916;-84
2022/03/30 08:24:39;;;;;;;;;;;;;;;14.03;60.56;99798.50;5039715;28;19921;-73
2022/03/30 08:27:25;;;;;;;;;;;;;;;14.24;59.99;99803.59;5017982;28;19917;-72
2022/03/30 08:30:09;;;;;;;;;;;;;;;14.54;58.50;99802.66;5042470;28;19913;-72
2022/03/30 08:32:54;;;;;;;;;;;;;;;14.31;57.94;99810.00;5038108;28;19912;-72
2022/03/30 08:35:39;;;;;;;;;;;;;;;14.22;58.09;99808.66;5054657;28;19912;-72
2022/03/30 08:38:23;;;;;;;;;;;;;;;14.72;57.51;99794.75;5038806;28;19916;-72
2022/03/30 08:41:09;;;;;;;;;;;;;;;14.98;57.01;99802.22;5034125;28;19913;-72
2022/03/30 08:43:53;;;;;;;;;;;;;;;15.10;56.33;99807.50;5034814;28;19920;-75
2022/03/30 08:46:38;;;;;;;;;;;;;;;15.04;56.16;99797.19;5035004;28;20360;-73
2022/03/30 08:49:23;;;;;;;;;;;;;;;15.02;56.33;99803.06;5034246;28;20291;-73
2022/03/30 08:52:08;;;;;;;;;;;;;;;14.70;56.89;99802.53;5034581;28;19913;-74
2022/03/30 08:54:53;;;;;;;;;;;;;;;15.08;55.63;99809.03;5054190;28;19913;-73
2022/03/30 08:57:38;;;;;;;;;;;;;;;15.54;53.38;99807.81;5054415;28;19913;-74
2022/03/30 09:00:24;;;;;;;;;;;;;;;15.70;52.39;99819.34;5054298;28;19913;-74
2022/03/30 09:03:09;;;;;;;;;;;;;;;15.94;52.11;99812.63;5054336;28;19917;-74
2022/03/30 09:05:54;;;;;;;;;;;;;;;16.08;52.04;99815.53;5054389;28;19916;-73
2022/03/30 09:08:38;;;;;;;;;;;;;;;15.78;53.10;99812.03;5052183;28;19913;-73
2022/03/30 09:11:25;;;;;;;;;;;;;;;15.81;52.74;99811.28;5034073;28;19913;-74
2022/03/30 09:14:11;;;;;;;;;;;;;;;15.94;52.59;99804.41;5033706;28;19912;-74
2022/03/30 09:16:59;;;;;;;;;;;;;;;15.73;53.21;99804.13;5034293;28;20271;-74
2022/03/30 09:19:44;;;;;;;;;;;;;;;14.82;55.74;99798.81;5034228;28;20276;-74
2022/03/30 09:22:28;;;;;;;;;;;;;;;15.60;53.51;99794.53;5033876;28;19913;-73
2022/03/30 09:25:13;;;;;;;;;;;;;;;15.99;51.92;99801.31;5033766;28;19916;-73
2022/03/30 09:27:59;;;;;;;;;;;;;;;15.86;52.39;99801.94;5033655;28;19913;-74
2022/03/30 09:30:44;;;;;;;;;;;;;;;17.36;48.72;99805.75;5033197;28;19961;-74
2022/03/30 09:33:29;;;;;;;;;;;;;;;17.25;47.99;99802.94;5032708;28;19912;-74
2022/03/30 09:36:30;;;;;;;;;;;;;;;17.07;48.86;99797.31;5023661;28;19921;-74
2022/03/30 09:39:32;;;;;;;;;;;;;;;15.89;52.19;99796.50;5032974;28;19932;-73
2022/03/30 09:42:18;;;;;;;;;;;;;;;16.95;49.40;99794.88;5028165;28;19921;-74
2022/03/30 09:45:02;;;;;;;;;;;;;;;17.83;47.05;99791.09;5037886;28;19920;-74
2022/03/30 09:47:47;;;;;;;;;;;;;;;17.73;47.52;99789.88;5051572;28;19913;-74
2022/03/30 09:50:31;;;;;;;;;;;;;;;17.72;47.80;99780.09;5037243;28;20372;-72
2022/03/30 09:53:17;;;;;;;;;;;;;;;16.56;50.33;99777.22;5020925;28;20292;-74
2022/03/30 09:56:06;;;;;;;;;;;;;;;15.84;52.44;99769.41;5043022;28;19913;-74
2022/03/30 09:59:01;;;;;;;;;;;;;;;15.67;53.23;99762.53;5038954;28;19913;-73
2022/03/30 10:01:48;;;;;;;;;;;;;;;15.91;53.02;99766.75;5035378;28;19913;-74
2022/03/30 10:04:34;;;;;;;;;;;;;;;15.27;54.32;99759.63;5036457;28;19917;-74
2022/03/30 10:07:19;;;;;;;;;;;;;;;15.49;52.94;99755.22;5032838;28;19913;-74
2022/03/30 10:10:04;;;;;;;;;;;;;;;14.96;54.02;99742.34;5036339;28;19913;-73
2022/03/30 10:12:49;;;;;;;;;;;;;;;14.82;54.83;99735.88;5033229;28;19913;-74
2022/03/30 10:15:34;;;;;;;;;;;;;;;14.87;55.27;99725.41;5032895;28;20109;-74
2022/03/30 10:18:19;;;;;;;;;;;;;;;14.75;54.54;99733.00;5032122;28;19916;-74
2022/03/30 10:21:15;;;;;;;;;;;;;;;15.01;53.50;99724.03;5032640;28;19913;-74
2022/03/30 10:24:18;;;;;;;;;;;;;;;14.68;55.03;99722.72;5015049;28;19918;-74
2022/03/30 10:27:03;;;;;;;;;;;;;;;14.88;54.58;99718.00;5028684;28;19913;-74
2022/03/30 10:29:54;;;;;;;;;;;;;;;15.05;53.90;99713.91;5050568;28;19913;-74
2022/03/30 10:32:39;;;;;;;;;;;;;;;14.74;55.22;99704.06;5050388;28;19913;-74
2022/03/30 10:35:39;;;;;;;;;;;;;;;14.59;55.26;99705.00;5040769;28;19916;-74
2022/03/30 10:38:24;;;;;;;;;;;;;;;15.20;52.84;99704.72;5047230;28;19917;-73
2022/03/30 10:41:10;;;;;;;;;;;;;;;15.45;52.13;99710.53;5031221;28;19913;-74
2022/03/30 10:44:14;;;;;;;;;;;;;;;15.12;53.38;99700.34;5012951;28;19921;-74
2022/03/30 10:47:08;;;;;;;;;;;;;;;14.48;54.97;99702.88;5012137;28;20285;-74
2022/03/30 10:49:54;;;;;;;;;;;;;;;14.85;53.03;99708.56;5023399;28;19912;-73
2022/03/30 10:52:43;;;;;;;;;;;;;;;15.18;53.03;99690.63;5032707;28;19913;-74
2022/03/30 10:55:29;;;;;;;;;;;;;;;15.66;51.51;99699.88;5052196;28;20291;-74
2022/03/30 10:58:15;;;;;;;;;;;;;;;15.84;50.68;99684.44;5012634;28;19913;-74
2022/03/30 11:01:18;;;;;;;;;;;;;;;15.14;52.44;99689.78;5013362;28;19913;-74
2022/03/30 11:04:02;;;;;;;;;;;;;;;14.88;53.21;99687.88;5040747;28;19917;-74
2022/03/30 11:06:49;;;;;;;;;;;;;;;15.43;51.89;99688.22;5032423;28;19913;-74
2022/03/30 11:09:35;;;;;;;;;;;;;;;15.52;51.27;99681.31;5036322;28;20311;-74
2022/03/30 11:12:20;;;;;;;;;;;;;;;15.56;50.44;99675.88;5033145;28;19913;-74
2022/03/30 11:15:05;;;;;;;;;;;;;;;15.47;51.56;99675.34;5043361;28;19912;-74
2022/03/30 11:17:50;;;;;;;;;;;;;;;15.29;51.58;99664.16;5035552;28;19913;-74
2022/03/30 11:20:34;;;;;;;;;;;;;;;15.31;52.17;99662.63;5031800;28;20284;-74
2022/03/30 11:23:20;;;;;;;;;;;;;;;15.49;51.24;99656.59;5039016;28;19913;-74
2022/03/30 11:26:04;;;;;;;;;;;;;;;15.06;51.93;99656.06;5045444;28;20292;-74
2022/03/30 11:28:49;;;;;;;;;;;;;;;15.17;52.00;99656.19;5034034;28;19913;-74
2022/03/30 11:31:34;;;;;;;;;;;;;;;15.50;51.29;99663.63;5033389;28;19913;-74
2022/03/30 11:34:26;;;;;;;;;;;;;;;15.18;52.11;99661.31;5030780;28;19913;-74
2022/03/30 11:37:11;;;;;;;;;;;;;;;14.90;52.99;99655.44;5020501;28;19913;-73
2022/03/30 11:40:19;;;;;;;;;;;;;;;14.86;52.97;99646.38;5037319;28;19912;-72
2022/03/30 11:43:04;;;;;;;;;;;;;;;15.19;52.69;99643.69;5032220;28;19913;-74
2022/03/30 11:45:50;;;;;;;;;;;;;;;15.02;52.17;99638.00;5031564;28;19921;-73
2022/03/30 11:48:36;;;;;;;;;;;;;;;14.71;52.73;99631.72;5046210;28;19916;-74
2022/03/30 11:51:25;;;;;;;;;;;;;;;14.77;52.70;99632.19;5046054;28;19913;-74
2022/03/30 11:54:13;;;;;;;;;;;;;;;15.15;52.52;99631.91;5051797;28;19913;-73
2022/03/30 11:56:58;;;;;;;;;;;;;;;15.21;52.87;99630.44;5042295;28;19912;-73
2022/03/30 11:59:53;;;;;;;;;;;;;;;15.11;53.39;99625.59;5046789;28;19913;-74
2022/03/30 12:02:44;;;;;;;;;;;;;;;14.52;55.40;99624.41;5018950;28;19913;-73
2022/03/30 12:05:29;;;;;;;;;;;;;;;14.59;54.54;99617.44;5015337;28;19917;-74
2022/03/30 12:08:17;;;;;;;;;;;;;;;15.00;53.37;99616.47;5020054;28;19913;-74
2022/03/30 12:11:03;;;;;;;;;;;;;;;15.05;52.89;99610.66;5032238;28;19913;-74
2022/03/30 12:13:52;;;;;;;;;;;;;;;15.09;53.22;99605.22;5034948;28;19913;-74
2022/03/30 12:16:38;;;;;;;;;;;;;;;15.06;53.31;99601.28;5039275;28;19913;-73
2022/03/30 12:19:23;;;;;;;;;;;;;;;14.67;54.53;99592.56;5034636;28;19913;-73
2022/03/30 12:22:08;;;;;;;;;;;;;;;14.62;55.50;99581.16;5034943;28;19913;-73
2022/03/30 12:24:53;;;;;;;;;;;;;;;14.46;56.69;99581.31;5054577;28;19917;-73
2022/03/30 12:27:41;;;;;;;;;;;;;;;14.93;55.19;99567.88;5051727;28;19913;-73
2022/03/30 12:30:28;;;;;;;;;;;;;;;14.97;54.72;99567.94;5042876;28;19913;-73
2022/03/30 12:33:15;;;;;;;;;;;;;;;14.91;54.62;99572.16;5042250;28;19912;-73
2022/03/30 12:36:12;;;;;;;;;;;;;;;15.57;53.34;99565.91;5022095;28;20375;-73
2022/03/30 12:38:56;;;;;;;;;;;;;;;15.52;53.31;99568.97;5032554;28;20401;-72
2022/03/30 12:41:41;;;;;;;;;;;;;;;15.27;52.74;99567.91;5035936;28;20296;-73
2022/03/30 12:44:27;;;;;;;;;;;;;;;14.70;54.69;99578.13;5036096;28;19921;-73
2022/03/30 12:47:24;;;;;;;;;;;;;;;14.77;54.89;99563.78;5043361;28;19917;-73
2022/03/30 12:50:13;;;;;;;;;;;;;;;14.79;55.73;99558.69;5047084;28;19921;-73
2022/03/30 12:53:04;;;;;;;;;;;;;;;14.59;56.26;99565.47;5053597;28;19913;-73
2022/03/30 12:55:51;;;;;;;;;;;;;;;14.91;55.59;99553.00;5026492;28;19924;-73
2022/03/30 12:58:47;;;;;;;;;;;;;;;14.61;55.42;99544.00;5034065;28;19917;-73
2022/03/30 13:01:37;;;;;;;;;;;;;;;14.55;56.70;99541.59;5034008;28;19932;-72
2022/03/30 13:04:22;;;;;;;;;;;;;;;14.49;57.12;99547.75;5024830;28;19924;-73
2022/03/30 13:07:11;;;;;;;;;;;;;;;14.42;56.97;99534.78;5047558;28;19912;-73
2022/03/30 13:09:59;;;;;;;;;;;;;;;14.25;57.34;99538.00;5054261;28;19913;-72
2022/03/30 13:12:46;;;;;;;;;;;;;;;14.30;57.89;99526.75;5053684;28;19913;-73
2022/03/30 13:15:33;;;;;;;;;;;;;;;14.45;56.42;99525.03;5045651;28;19912;-73
2022/03/30 13:18:21;;;;;;;;;;;;;;;14.55;55.34;99524.38;5047986;28;19913;-72
2022/03/30 13:21:07;;;;;;;;;;;;;;;14.66;55.19;99521.78;5039515;28;19913;-73
2022/03/30 13:23:52;;;;;;;;;;;;;;;14.52;54.88;99515.00;5034026;28;19917;-73
2022/03/30 13:26:37;;;;;;;;;;;;;;;14.52;55.26;99512.25;5033923;28;19913;-74
2022/03/30 13:29:22;;;;;;;;;;;;;;;14.57;54.70;99507.59;5034024;28;19909;-73
2022/03/30 13:32:07;;;;;;;;;;;;;;;14.63;54.46;99504.16;5033670;28;20299;-73
2022/03/30 13:34:51;;;;;;;;;;;;;;;14.53;54.87;99500.13;5033536;28;19913;-73
2022/03/30 13:37:36;;;;;;;;;;;;;;;14.50;54.78;99494.63;5033566;28;19913;-74
2022/03/30 13:40:21;;;;;;;;;;;;;;;14.42;54.79;99491.00;5052675;28;19913;-74
2022/03/30 13:43:06;;;;;;;;;;;;;;;14.67;54.27;99485.84;5053568;28;20384;-74
2022/03/30 13:45:50;;;;;;;;;;;;;;;14.64;53.92;99483.84;5013302;28;19913;-74
2022/03/30 13:48:35;;;;;;;;;;;;;;;14.44;54.57;99488.69;5009215;28;19912;-74
2022/03/30 13:51:21;;;;;;;;;;;;;;;14.36;54.95;99478.81;5045012;28;19913;-74
2022/03/30 13:54:05;;;;;;;;;;;;;;;14.44;54.57;99469.53;5053271;28;19916;-74
2022/03/30 13:56:50;;;;;;;;;;;;;;;14.71;53.52;99470.25;5053134;28;19912;-74
2022/03/30 13:59:34;;;;;;;;;;;;;;;14.44;53.86;99471.47;5033358;28;19913;-73
2022/03/30 14:02:19;;;;;;;;;;;;;;;14.48;54.12;99461.38;5033207;28;19917;-74
2022/03/30 14:05:03;;;;;;;;;;;;;;;14.52;53.34;99462.22;5033333;28;19913;-74
2022/03/30 14:07:48;;;;;;;;;;;;;;;14.51;53.96;99458.69;5033216;28;19913;-73
2022/03/30 14:10:33;;;;;;;;;;;;;;;14.68;53.30;99454.56;5033174;28;19913;-74
2022/03/30 14:13:18;;;;;;;;;;;;;;;14.48;53.34;99459.41;5033055;28;19913;-74
2022/03/30 14:16:02;;;;;;;;;;;;;;;14.48;53.44;99444.94;5033178;28;19913;-74
2022/03/30 14:18:47;;;;;;;;;;;;;;;14.55;53.27;99445.03;5043368;28;19913;-73
2022/03/30 14:21:32;;;;;;;;;;;;;;;14.58;53.73;99435.31;5052929;28;19912;-74
2022/03/30 14:24:18;;;;;;;;;;;;;;;14.78;53.12;99439.47;5024218;28;19913;-74
2022/03/30 14:27:02;;;;;;;;;;;;;;;14.61;53.14;99424.41;5032566;28;20299;-74
2022/03/30 14:29:47;;;;;;;;;;;;;;;14.49;53.50;99425.44;5032800;28;19913;-74